createdAt,value
2018-12-08T00:01:28.463Z,12.73
2018-12-08T00:03:58.726Z,12.63
2018-12-08T00:06:29.170Z,12.37
2018-12-08T00:09:01.275Z,12.43
2018-12-08T00:11:31.912Z,12.43
2018-12-08T00:14:02.240Z,14.00
2018-12-08T00:16:32.695Z,11.97
2018-12-08T00:19:02.954Z,12.73
2018-12-08T00:21:33.295Z,11.40
2018-12-08T00:24:03.594Z,12.50
2018-12-08T00:26:33.910Z,12.30
2018-12-08T00:29:04.261Z,11.67
2018-12-08T00:31:44.230Z,12.30
2018-12-08T00:34:14.603Z,11.53
2018-12-08T00:36:45.158Z,11.83
2018-12-08T00:39:15.587Z,15.07
2018-12-08T00:41:45.965Z,16.63
2018-12-08T00:44:16.282Z,9.30
2018-12-08T00:46:46.703Z,8.23
2018-12-08T00:49:16.690Z,11.30
2018-12-08T00:51:46.975Z,18.80
2018-12-08T00:54:18.410Z,16.50
2018-12-08T00:56:48.686Z,21.47
2018-12-08T00:59:19.047Z,12.73
2018-12-08T01:01:49.423Z,8.53
2018-12-08T01:04:19.728Z,7.77
2018-12-08T01:06:50.071Z,17.17
2018-12-08T01:09:20.344Z,17.20
2018-12-08T01:11:50.729Z,8.47
2018-12-08T01:14:21.056Z,14.00
2018-12-08T01:16:51.355Z,9.17
2018-12-08T01:19:21.567Z,7.00
2018-12-08T01:21:51.864Z,7.20
2018-12-08T01:24:22.148Z,7.63
2018-12-08T01:26:52.500Z,7.20
2018-12-08T01:29:22.830Z,7.17
2018-12-08T01:31:53.121Z,7.07
2018-12-08T01:34:23.555Z,7.03
2018-12-08T01:36:53.871Z,7.10
2018-12-08T01:39:24.202Z,7.90
2018-12-08T01:41:54.486Z,6.63
2018-12-08T01:44:24.775Z,6.43
2018-12-08T01:46:55.167Z,6.90
2018-12-08T01:49:25.595Z,6.90
2018-12-08T01:51:55.914Z,7.27
2018-12-08T01:54:26.244Z,6.67
2018-12-08T01:56:56.594Z,6.50
2018-12-08T01:59:26.886Z,7.23
2018-12-08T02:01:57.254Z,6.70
2018-12-08T02:04:27.587Z,6.23
2018-12-08T02:06:57.855Z,7.03
2018-12-08T02:09:28.097Z,6.50
2018-12-08T02:11:58.391Z,7.43
2018-12-08T02:14:28.566Z,7.70
2018-12-08T02:16:58.739Z,6.93
2018-12-08T02:19:28.931Z,7.53
2018-12-08T02:21:59.337Z,7.37
2018-12-08T02:24:29.607Z,7.47
2018-12-08T02:26:59.899Z,7.60
2018-12-08T02:29:30.166Z,7.27
2018-12-08T02:32:00.532Z,7.13
2018-12-08T02:34:30.885Z,7.47
2018-12-08T02:37:01.296Z,6.97
2018-12-08T02:39:31.640Z,7.00
2018-12-08T02:42:02.003Z,6.90
2018-12-08T02:44:32.251Z,7.33
2018-12-08T02:47:02.832Z,6.90
2018-12-08T02:49:33.116Z,7.27
2018-12-08T02:52:03.417Z,7.60
2018-12-08T02:54:33.744Z,7.13
2018-12-08T02:57:03.365Z,7.33
2018-12-08T02:59:33.880Z,6.63
2018-12-08T03:02:04.082Z,7.77
2018-12-08T03:04:34.272Z,12.87
2018-12-08T03:07:04.767Z,8.23
2018-12-08T03:09:35.172Z,6.77
2018-12-08T03:12:05.512Z,6.40
2018-12-08T03:14:36.092Z,6.53
2018-12-08T03:17:06.947Z,6.70
2018-12-08T03:19:37.248Z,6.20
2018-12-08T03:22:07.562Z,4.73
2018-12-08T03:24:37.832Z,3.73
2018-12-08T03:27:08.069Z,4.10
2018-12-08T03:29:38.321Z,3.77
2018-12-08T03:32:08.659Z,3.20
2018-12-08T03:34:38.934Z,3.07
2018-12-08T03:37:09.283Z,3.13
2018-12-08T03:39:39.589Z,3.20
2018-12-08T03:42:09.790Z,2.80
2018-12-08T03:44:40.087Z,2.57
2018-12-08T03:47:10.711Z,2.57
2018-12-08T03:49:41.136Z,1.83
2018-12-08T03:52:11.507Z,1.70
2018-12-08T03:54:41.688Z,1.97
2018-12-08T03:57:11.995Z,1.80
2018-12-08T03:59:42.372Z,1.53
2018-12-08T04:02:12.633Z,1.00
2018-12-08T04:04:42.955Z,1.40
2018-12-08T04:07:13.224Z,1.20
2018-12-08T04:09:43.565Z,1.23
2018-12-08T04:12:13.825Z,1.17
2018-12-08T04:14:44.035Z,1.20
2018-12-08T04:17:14.335Z,0.87
2018-12-08T04:19:44.671Z,0.97
2018-12-08T04:22:14.940Z,0.77
2018-12-08T04:24:45.280Z,1.10
2018-12-08T04:27:15.593Z,0.90
2018-12-08T04:29:45.922Z,0.80
2018-12-08T04:32:16.224Z,0.90
2018-12-08T04:34:46.408Z,0.83
2018-12-08T04:37:16.667Z,1.37
2018-12-08T04:39:47.036Z,1.10
2018-12-08T04:42:17.300Z,1.30
2018-12-08T04:44:47.719Z,1.23
2018-12-08T04:47:18.136Z,1.50
2018-12-08T04:49:48.384Z,1.10
2018-12-08T04:52:18.856Z,1.30
2018-12-08T04:54:49.407Z,1.10
2018-12-08T04:57:19.715Z,1.40
2018-12-08T04:59:50.056Z,1.10
2018-12-08T05:02:20.456Z,1.43
2018-12-08T05:04:50.758Z,1.23
2018-12-08T05:07:21.314Z,1.40
2018-12-08T05:09:51.556Z,1.40
2018-12-08T05:12:21.959Z,1.63
2018-12-08T05:14:52.243Z,1.50
2018-12-08T05:17:22.566Z,1.40
2018-12-08T05:19:52.970Z,1.50
2018-12-08T05:22:23.273Z,1.40
2018-12-08T05:24:53.659Z,1.10
2018-12-08T05:27:23.974Z,1.23
2018-12-08T05:29:54.267Z,1.40
2018-12-08T05:32:24.535Z,1.33
2018-12-08T05:34:54.706Z,1.50
2018-12-08T05:37:25.044Z,1.30
2018-12-08T05:39:55.342Z,1.50
2018-12-08T05:42:25.714Z,1.60
2018-12-08T05:44:56.083Z,1.40
2018-12-08T05:47:26.787Z,1.40
2018-12-08T05:49:57.411Z,1.53
2018-12-08T05:52:27.783Z,1.50
2018-12-08T05:54:58.354Z,1.30
2018-12-08T05:57:28.787Z,1.40
2018-12-08T05:59:59.158Z,1.50
2018-12-08T06:02:29.528Z,1.60
2018-12-08T06:04:59.724Z,1.87
2018-12-08T06:07:30.300Z,1.77
2018-12-08T06:10:00.752Z,1.50
2018-12-08T06:12:30.476Z,1.40
2018-12-08T06:15:00.655Z,1.37
2018-12-08T06:17:31.289Z,1.67
2018-12-08T06:20:01.546Z,1.60
2018-12-08T06:22:31.896Z,1.70
2018-12-08T06:25:02.200Z,2.33
2018-12-08T06:27:44.299Z,2.00
2018-12-08T06:30:14.519Z,2.00
2018-12-08T06:32:44.786Z,1.57
2018-12-08T06:35:15.023Z,1.47
2018-12-08T06:37:45.309Z,1.73
2018-12-08T06:40:15.903Z,1.60
2018-12-08T06:42:46.237Z,1.37
2018-12-08T06:45:16.484Z,1.40
2018-12-08T06:47:46.629Z,1.40
2018-12-08T06:50:17.028Z,1.87
2018-12-08T06:52:47.411Z,1.33
2018-12-08T06:55:17.043Z,1.20
2018-12-08T06:57:47.255Z,1.37
2018-12-08T07:00:17.043Z,1.27
2018-12-08T07:02:47.280Z,1.70
2018-12-08T07:05:17.666Z,1.30
2018-12-08T07:07:48.087Z,1.57
2018-12-08T07:10:18.420Z,1.67
2018-12-08T07:12:48.736Z,1.20
2018-12-08T07:15:19.162Z,1.60
2018-12-08T07:17:49.621Z,1.20
2018-12-08T07:20:20.023Z,1.50
2018-12-08T07:22:50.518Z,2.20
2018-12-08T07:25:20.676Z,1.40
2018-12-08T07:27:51.404Z,1.47
2018-12-08T07:30:21.801Z,1.73
2018-12-08T07:32:52.116Z,1.70
2018-12-08T07:35:22.599Z,1.70
2018-12-08T07:37:53.093Z,1.47
2018-12-08T07:40:23.299Z,1.40
2018-12-08T07:42:53.705Z,1.30
2018-12-08T07:45:23.990Z,1.30
2018-12-08T07:47:54.295Z,1.60
2018-12-08T07:50:24.735Z,1.37
2018-12-08T07:52:55.054Z,1.50
2018-12-08T07:55:25.405Z,1.50
2018-12-08T07:57:55.704Z,1.63
2018-12-08T08:00:25.894Z,1.33
2018-12-08T08:02:56.240Z,1.63
2018-12-08T08:05:26.839Z,1.50
2018-12-08T08:07:57.055Z,1.40
2018-12-08T08:10:27.331Z,1.90
2018-12-08T08:12:57.576Z,1.50
2018-12-08T08:15:27.867Z,1.50
2018-12-08T08:17:58.251Z,1.40
2018-12-08T08:20:28.487Z,1.60
2018-12-08T08:22:58.871Z,1.47
2018-12-08T08:25:29.159Z,1.70
2018-12-08T08:27:59.491Z,2.23
2018-12-08T08:30:29.811Z,1.70
2018-12-08T08:33:00.209Z,1.50
2018-12-08T08:35:30.544Z,1.50
2018-12-08T08:38:01.020Z,1.60
2018-12-08T08:40:31.420Z,1.20
2018-12-08T08:43:01.879Z,1.63
2018-12-08T08:45:32.235Z,1.30
2018-12-08T08:48:02.784Z,1.40
2018-12-08T08:50:33.016Z,1.57
2018-12-08T08:53:05.783Z,1.23
2018-12-08T08:55:36.119Z,1.40
2018-12-08T08:58:06.531Z,1.23
2018-12-08T09:00:36.700Z,1.80
2018-12-08T09:03:06.499Z,1.37
2018-12-08T09:05:36.567Z,1.20
2018-12-08T09:08:06.880Z,1.10
2018-12-08T09:10:37.087Z,1.10
2018-12-08T09:13:07.292Z,1.70
2018-12-08T09:15:37.701Z,1.40
2018-12-08T09:18:08.028Z,1.00
2018-12-08T09:20:38.336Z,1.37
2018-12-08T09:23:08.807Z,1.17
2018-12-08T09:25:39.417Z,1.20
2018-12-08T09:28:09.710Z,1.10
2018-12-08T09:30:40.156Z,1.30
2018-12-08T09:33:10.596Z,1.33
2018-12-08T09:35:40.953Z,1.10
2018-12-08T09:38:11.357Z,1.07
2018-12-08T09:40:40.988Z,1.30
2018-12-08T09:43:11.255Z,1.50
2018-12-08T09:45:42.088Z,1.40
2018-12-08T09:48:11.714Z,1.73
2018-12-08T09:50:42.131Z,1.83
2018-12-08T09:53:18.196Z,2.20
2018-12-08T09:55:48.624Z,1.97
2018-12-08T09:58:18.968Z,1.30
2018-12-08T10:00:49.370Z,1.93
2018-12-08T10:03:19.979Z,1.70
2018-12-08T10:05:50.369Z,1.70
2018-12-08T10:08:20.731Z,1.70
2018-12-08T10:10:51.167Z,1.60
2018-12-08T10:13:21.526Z,2.27
2018-12-08T10:15:51.655Z,2.07
2018-12-08T10:18:21.939Z,1.63
2018-12-08T10:20:52.222Z,1.90
2018-12-08T10:23:22.484Z,1.60
2018-12-08T10:25:52.815Z,1.80
2018-12-08T10:28:23.240Z,2.03
2018-12-08T10:30:53.522Z,2.57
2018-12-08T10:33:23.855Z,1.93
2018-12-08T10:35:54.035Z,1.73
2018-12-08T10:38:24.580Z,2.10
2018-12-08T10:40:54.851Z,1.73
2018-12-08T10:43:25.002Z,2.20
2018-12-08T10:45:55.275Z,1.40
2018-12-08T10:48:25.515Z,1.40
2018-12-08T10:50:55.980Z,1.40
2018-12-08T10:53:26.321Z,1.20
2018-12-08T10:55:56.644Z,1.30
2018-12-08T10:58:27.059Z,1.33
2018-12-08T11:01:02.190Z,1.60
2018-12-08T11:03:51.884Z,1.53
2018-12-08T11:06:22.283Z,1.50
2018-12-08T11:08:52.670Z,1.40
2018-12-08T11:11:22.871Z,1.53
2018-12-08T11:13:53.073Z,1.30
2018-12-08T11:16:23.415Z,1.57
2018-12-08T11:18:53.797Z,1.27
2018-12-08T11:21:24.546Z,1.40
2018-12-08T11:23:54.964Z,1.40
2018-12-08T11:26:25.399Z,1.60
2018-12-08T11:28:55.728Z,1.80
2018-12-08T11:31:26.207Z,1.37
2018-12-08T11:33:56.555Z,1.13
2018-12-08T11:36:26.933Z,1.23
2018-12-08T11:38:57.200Z,1.43
2018-12-08T11:41:27.516Z,1.10
2018-12-08T11:43:57.847Z,1.33
2018-12-08T11:46:28.247Z,1.40
2018-12-08T11:48:58.993Z,1.60
2018-12-08T11:51:29.416Z,1.30
2018-12-08T11:53:59.772Z,1.67
2018-12-08T11:56:33.989Z,1.20
2018-12-08T11:59:05.388Z,1.60
2018-12-08T12:01:35.760Z,1.50
2018-12-08T12:04:06.187Z,1.30
2018-12-08T12:06:36.658Z,1.30
2018-12-08T12:09:08.500Z,1.00
2018-12-08T12:11:38.851Z,1.10
2018-12-08T12:14:09.094Z,1.10
2018-12-08T12:16:39.492Z,1.37
2018-12-08T12:19:09.887Z,1.40
2018-12-08T12:21:39.570Z,1.00
2018-12-08T12:24:09.767Z,1.20
2018-12-08T12:26:40.063Z,1.10
2018-12-08T12:29:10.498Z,0.90
2018-12-08T12:31:40.888Z,1.30
2018-12-08T12:34:10.666Z,1.00
2018-12-08T12:36:40.983Z,1.27
2018-12-08T12:39:11.316Z,1.00
2018-12-08T12:41:41.598Z,1.30
2018-12-08T12:44:11.955Z,1.60
2018-12-08T12:46:42.250Z,1.40
2018-12-08T12:49:12.527Z,1.37
2018-12-08T12:51:42.839Z,1.27
2018-12-08T12:54:12.555Z,1.40
2018-12-08T12:56:42.767Z,1.60
2018-12-08T12:59:12.982Z,2.00
2018-12-08T13:01:43.475Z,1.80
2018-12-08T13:04:13.632Z,1.67
2018-12-08T13:06:43.948Z,1.43
2018-12-08T13:09:14.411Z,2.17
2018-12-08T13:11:45.079Z,1.90
2018-12-08T13:14:15.439Z,1.77
2018-12-08T13:16:45.759Z,1.80
2018-12-08T13:19:16.082Z,1.90
2018-12-08T13:21:46.384Z,1.47
2018-12-08T13:24:16.670Z,2.10
2018-12-08T13:26:46.902Z,1.30
2018-12-08T13:29:17.293Z,1.50
2018-12-08T13:31:47.567Z,1.90
2018-12-08T13:34:29.060Z,2.00
2018-12-08T13:36:59.388Z,1.70
2018-12-08T13:39:29.739Z,2.70
2018-12-08T13:42:00.067Z,1.73
2018-12-08T13:44:38.231Z,2.20
2018-12-08T13:47:08.487Z,1.57
2018-12-08T13:49:38.862Z,3.30
2018-12-08T13:52:09.086Z,2.00
2018-12-08T13:54:52.314Z,1.93
2018-12-08T13:57:22.560Z,1.97
2018-12-08T13:59:55.932Z,2.03
2018-12-08T14:02:26.247Z,4.00
2018-12-08T14:04:55.967Z,3.40
2018-12-08T14:07:26.186Z,2.00
2018-12-08T14:09:56.511Z,2.50
2018-12-08T14:12:26.811Z,2.10
2018-12-08T14:14:56.441Z,2.10
2018-12-08T14:17:26.604Z,2.57
2018-12-08T14:19:57.157Z,2.13
2018-12-08T14:22:27.431Z,2.00
2018-12-08T14:24:57.727Z,2.33
2018-12-08T14:27:27.999Z,2.50
2018-12-08T14:29:58.231Z,2.20
2018-12-08T14:32:28.463Z,2.20
2018-12-08T14:34:58.766Z,2.00
2018-12-08T14:37:28.976Z,2.33
2018-12-08T14:39:59.311Z,1.90
2018-12-08T14:42:29.740Z,1.93
2018-12-08T14:45:00.006Z,1.83
2018-12-08T14:47:30.300Z,1.97
2018-12-08T14:50:00.316Z,2.40
2018-12-08T14:52:30.675Z,2.50
2018-12-08T14:55:01.013Z,2.60
2018-12-08T14:57:31.340Z,2.50
2018-12-08T15:00:01.907Z,2.50
2018-12-08T15:02:32.210Z,2.23
2018-12-08T15:05:02.539Z,2.53
2018-12-08T15:07:32.959Z,2.53
2018-12-08T15:10:03.264Z,2.30
2018-12-08T15:12:33.523Z,2.53
2018-12-08T15:15:03.916Z,2.70
2018-12-08T15:17:34.180Z,2.80
2018-12-08T15:20:04.828Z,2.90
2018-12-08T15:22:35.190Z,2.90
2018-12-08T15:25:06.332Z,3.00
2018-12-08T15:27:36.555Z,3.40
2018-12-08T15:30:08.163Z,3.47
2018-12-08T15:32:38.600Z,3.13
2018-12-08T15:35:10.691Z,3.47
2018-12-08T15:37:41.437Z,3.13
2018-12-08T15:40:12.067Z,3.43
2018-12-08T15:42:42.311Z,3.50
2018-12-08T15:45:13.100Z,3.13
2018-12-08T15:47:43.437Z,3.00
2018-12-08T15:50:13.055Z,2.90
2018-12-08T15:52:43.223Z,3.03
2018-12-08T15:55:13.541Z,2.90
2018-12-08T15:57:43.899Z,2.50
2018-12-08T16:00:14.555Z,3.37
2018-12-08T16:02:44.887Z,3.00
2018-12-08T16:05:15.358Z,3.10
2018-12-08T16:07:45.675Z,2.60
2018-12-08T16:10:16.076Z,2.50
2018-12-08T16:12:46.531Z,2.90
2018-12-08T16:15:16.884Z,2.70
2018-12-08T16:17:47.294Z,3.00
2018-12-08T16:20:17.637Z,2.50
2018-12-08T16:22:47.456Z,2.63
2018-12-08T16:25:17.527Z,3.33
2018-12-08T16:27:47.787Z,2.73
2018-12-08T16:30:18.191Z,2.60
2018-12-08T16:32:48.612Z,2.80
2018-12-08T16:35:19.039Z,2.73
2018-12-08T16:37:56.712Z,3.30
2018-12-08T16:40:19.659Z,2.70
2018-12-08T16:42:49.921Z,2.70
2018-12-08T16:45:20.271Z,2.80
2018-12-08T16:47:49.946Z,2.83
2018-12-08T16:50:20.205Z,3.47
2018-12-08T16:52:50.336Z,3.20
2018-12-08T16:55:20.911Z,3.20
2018-12-08T16:57:51.212Z,3.10
2018-12-08T17:00:21.527Z,2.97
2018-12-08T17:02:51.784Z,3.30
2018-12-08T17:05:22.255Z,3.17
2018-12-08T17:07:52.548Z,2.90
2018-12-08T17:10:22.750Z,3.40
2018-12-08T17:12:53.133Z,2.90
2018-12-08T17:15:23.499Z,3.07
2018-12-08T17:17:53.903Z,2.70
2018-12-08T17:20:24.111Z,2.70
2018-12-08T17:22:54.396Z,3.10
2018-12-08T17:25:24.058Z,3.07
2018-12-08T17:27:54.155Z,2.83
2018-12-08T17:30:24.578Z,2.97
2018-12-08T17:32:54.835Z,3.60
2018-12-08T17:35:25.311Z,3.30
2018-12-08T17:37:55.711Z,2.90
2018-12-08T17:40:25.932Z,2.77
2018-12-08T17:42:56.360Z,2.63
2018-12-08T17:45:26.732Z,2.07
2018-12-08T17:47:57.144Z,2.93
2018-12-08T17:50:26.627Z,2.40
2018-12-08T17:52:57.055Z,2.40
2018-12-08T17:55:27.360Z,3.03
2018-12-08T17:57:57.684Z,2.60
2018-12-08T18:00:27.862Z,2.60
2018-12-08T18:02:58.152Z,2.30
2018-12-08T18:05:39.618Z,2.60
2018-12-08T18:08:27.546Z,2.90
2018-12-08T18:10:57.824Z,2.73
2018-12-08T18:13:28.107Z,2.90
2018-12-08T18:15:58.473Z,2.67
2018-12-08T18:18:28.839Z,2.80
2018-12-08T18:20:59.244Z,2.70
2018-12-08T18:23:29.507Z,2.13
2018-12-08T18:25:59.920Z,2.70
2018-12-08T18:28:30.235Z,2.80
2018-12-08T18:31:00.643Z,3.00
2018-12-08T18:33:30.948Z,3.40
2018-12-08T18:36:01.194Z,3.53
2018-12-08T18:38:31.443Z,3.27
2018-12-08T18:41:01.810Z,2.97
2018-12-08T18:43:32.179Z,3.40
2018-12-08T18:46:02.582Z,3.40
2018-12-08T18:48:32.819Z,3.80
2018-12-08T18:51:03.219Z,3.57
2018-12-08T18:53:33.687Z,4.23
2018-12-08T18:56:21.358Z,4.03
2018-12-08T18:58:52.535Z,3.57
2018-12-08T19:01:22.860Z,4.00
2018-12-08T19:03:53.280Z,4.50
2018-12-08T19:06:23.651Z,4.10
2018-12-08T19:08:53.863Z,4.30
2018-12-08T19:11:38.946Z,4.07
2018-12-08T19:14:09.380Z,3.47
2018-12-08T19:16:39.652Z,4.03
2018-12-08T19:19:10.048Z,3.77
2018-12-08T19:21:40.303Z,3.80
2018-12-08T19:24:10.755Z,3.53
2018-12-08T19:26:41.191Z,2.70
2018-12-08T19:29:11.615Z,3.60
2018-12-08T19:31:42.002Z,2.80
2018-12-08T19:34:12.384Z,2.60
2018-12-08T19:36:42.071Z,6.03
2018-12-08T19:39:12.291Z,3.00
2018-12-08T19:41:42.463Z,3.10
2018-12-08T19:44:12.856Z,2.53
2018-12-08T19:46:43.271Z,2.53
2018-12-08T19:49:13.706Z,2.50
2018-12-08T19:51:44.032Z,2.50
2018-12-08T19:54:14.309Z,2.53
2018-12-08T19:56:44.611Z,2.30
2018-12-08T19:59:14.911Z,2.23
2018-12-08T20:01:45.281Z,2.30
2018-12-08T20:04:15.812Z,2.73
2018-12-08T20:06:46.206Z,2.70
2018-12-08T20:09:16.589Z,2.90
2018-12-08T20:11:47.056Z,2.90
2018-12-08T20:14:17.763Z,2.63
2018-12-08T20:16:48.124Z,2.43
2018-12-08T20:19:18.615Z,2.80
2018-12-08T20:21:48.875Z,2.40
2018-12-08T20:24:19.268Z,2.90
2018-12-08T20:26:49.627Z,2.80
2018-12-08T20:29:20.032Z,3.07
2018-12-08T20:31:50.531Z,3.10
2018-12-08T20:34:20.909Z,2.80
2018-12-08T20:36:51.039Z,2.87
2018-12-08T20:39:21.947Z,2.93
2018-12-08T20:41:52.376Z,2.87
2018-12-08T20:44:22.680Z,2.63
2018-12-08T20:49:22.327Z,3.20
2018-12-08T20:51:52.652Z,2.50
2018-12-08T20:54:23.211Z,2.90
2018-12-08T20:56:53.683Z,3.07
2018-12-08T20:59:24.015Z,2.90
2018-12-08T21:01:54.460Z,2.47
2018-12-08T21:04:24.703Z,2.40
2018-12-08T21:06:55.136Z,2.63
2018-12-08T21:09:25.571Z,2.67
2018-12-08T21:11:55.908Z,2.57
2018-12-08T21:14:26.242Z,2.60
2018-12-08T21:16:56.707Z,2.70
2018-12-08T21:19:27.027Z,2.70
2018-12-08T21:21:57.325Z,2.70
2018-12-08T21:24:27.684Z,2.37
2018-12-08T21:26:57.960Z,2.83
2018-12-08T21:29:28.279Z,2.50
2018-12-08T21:31:58.627Z,2.80
2018-12-08T21:34:28.940Z,2.37
2018-12-08T21:36:59.361Z,2.40
2018-12-08T21:39:29.732Z,1.97
2018-12-08T21:42:00.095Z,2.33
2018-12-08T21:44:30.672Z,2.10
2018-12-08T21:47:01.049Z,2.10
2018-12-08T21:49:31.527Z,2.63
2018-12-08T21:52:01.859Z,2.00
2018-12-08T21:54:32.325Z,2.47
2018-12-08T21:57:02.420Z,2.20
2018-12-08T21:59:32.852Z,1.87
2018-12-08T22:02:03.027Z,3.00
2018-12-08T22:04:35.608Z,2.30
2018-12-08T22:07:05.966Z,2.40
2018-12-08T22:09:36.239Z,2.00
2018-12-08T22:12:06.671Z,2.17
2018-12-08T22:14:41.137Z,1.70
2018-12-08T22:17:11.519Z,2.30
2018-12-08T22:19:41.811Z,2.00
2018-12-08T22:22:12.122Z,2.30
2018-12-08T22:24:44.171Z,2.50
2018-12-08T22:27:14.590Z,2.30
2018-12-08T22:29:44.923Z,2.40
2018-12-08T22:32:15.304Z,2.53
2018-12-08T22:34:46.078Z,2.57
2018-12-08T22:37:16.468Z,2.73
2018-12-08T22:39:46.813Z,2.40
2018-12-08T22:42:17.078Z,2.50
2018-12-08T22:44:47.368Z,2.40
2018-12-08T22:47:17.607Z,2.53
2018-12-08T22:49:47.903Z,2.70
2018-12-08T22:52:18.316Z,2.77
2018-12-08T22:54:48.661Z,2.50
2018-12-08T22:57:18.489Z,3.07
2018-12-08T22:59:48.700Z,3.00
2018-12-08T23:02:19.091Z,2.73
2018-12-08T23:04:49.410Z,2.97
2018-12-08T23:07:19.751Z,2.37
2018-12-08T23:09:50.051Z,2.77
2018-12-08T23:12:20.492Z,2.60
2018-12-08T23:14:50.870Z,2.20
2018-12-08T23:17:21.256Z,2.77
2018-12-08T23:19:51.813Z,2.00
2018-12-08T23:22:22.299Z,2.20
2018-12-08T23:24:52.609Z,2.57
2018-12-08T23:27:22.964Z,2.53
2018-12-08T23:29:53.748Z,2.73
2018-12-08T23:32:24.562Z,2.90
2018-12-08T23:34:54.825Z,2.53
2018-12-08T23:37:25.381Z,2.43
2018-12-08T23:39:55.232Z,2.53
2018-12-08T23:42:25.717Z,2.63
2018-12-08T23:44:56.430Z,2.60
2018-12-08T23:47:26.972Z,2.40
2018-12-08T23:49:57.445Z,1.77
2018-12-08T23:52:27.809Z,2.00
2018-12-08T23:54:58.679Z,1.90
2018-12-08T23:57:29.130Z,2.17
2018-12-08T23:59:59.691Z,2.00
